Time;durP1;ratioP1;P1;durP2;ratioP2;P2;SDS_P1;SDS_P2;PMS_P1;PMS_P2;Temp;Humidity;BMP_temperature;BMP_pressure;BME280_temperature;BME280_humidity;BME280_pressure;Samples;Min_cycle;Max_cycle;Signal;HPM_P1;HPM_P2
2024/03/20 00:02:04;;;;;;;14.20;6.73;;;13.80;95.80;;;;;;5076162;28;20813;-55
2024/03/20 00:04:32;;;;;;;9.87;6.30;;;13.80;95.90;;;;;;5076034;28;20444;-55
2024/03/20 00:06:59;;;;;;;10.10;6.17;;;13.80;95.90;;;;;;5075877;28;20951;-55
2024/03/20 00:09:26;;;;;;;8.67;5.53;;;13.70;95.80;;;;;;5076017;28;20460;-55
2024/03/20 00:11:53;;;;;;;8.20;6.20;;;13.70;95.90;;;;;;5076084;28;20450;-55
2024/03/20 00:14:20;;;;;;;11.10;6.00;;;13.60;95.90;;;;;;5075731;28;20478;-55
2024/03/20 00:16:48;;;;;;;7.50;6.70;;;13.60;96.10;;;;;;5075811;28;20441;-55
2024/03/20 00:19:14;;;;;;;11.13;5.97;;;13.60;96.30;;;;;;5075966;28;20487;-55
2024/03/20 00:21:42;;;;;;;10.40;5.40;;;13.60;96.40;;;;;;5075864;28;20449;-55
2024/03/20 00:24:09;;;;;;;9.80;6.00;;;13.60;96.40;;;;;;5075682;28;20441;-55
2024/03/20 00:26:36;;;;;;;9.67;6.17;;;13.50;96.30;;;;;;5075604;28;20553;-55
2024/03/20 00:29:03;;;;;;;7.63;5.80;;;13.50;96.20;;;;;;5075568;28;20461;-55
2024/03/20 00:31:30;;;;;;;9.80;5.90;;;13.50;96.20;;;;;;5075552;28;20436;-55
2024/03/20 00:33:56;;;;;;;15.80;6.10;;;13.50;96.20;;;;;;5075527;28;20798;-55
2024/03/20 00:36:24;;;;;;;9.20;5.97;;;13.50;96.30;;;;;;5075456;28;20475;-55
2024/03/20 00:38:52;;;;;;;8.70;5.50;;;13.50;96.30;;;;;;5075320;28;20529;-55
2024/03/20 00:41:19;;;;;;;11.77;5.50;;;13.50;96.40;;;;;;5075303;28;20476;-55
2024/03/20 00:43:46;;;;;;;8.40;6.00;;;13.50;96.30;;;;;;5075339;28;20441;-55
2024/03/20 00:46:12;;;;;;;6.93;4.50;;;13.50;96.30;;;;;;5075156;28;20481;-55
2024/03/20 00:48:40;;;;;;;8.03;6.10;;;13.50;96.40;;;;;;5074995;28;20457;-55
2024/03/20 00:51:06;;;;;;;8.63;5.50;;;13.50;96.50;;;;;;5074854;28;20826;-56
2024/03/20 00:53:33;;;;;;;11.90;6.10;;;13.50;96.60;;;;;;5074296;28;20444;-55
2024/03/20 00:56:01;;;;;;;8.57;5.37;;;13.50;96.60;;;;;;5074445;28;20488;-55
2024/03/20 00:58:30;;;;;;;7.70;5.87;;;13.50;96.50;;;;;;5074859;28;20464;-56
2024/03/20 01:00:57;;;;;;;6.47;4.93;;;13.40;96.40;;;;;;5074934;28;20448;-55
2024/03/20 01:03:23;;;;;;;9.27;5.20;;;13.40;96.40;;;;;;5075185;28;20445;-55
2024/03/20 01:05:50;;;;;;;7.23;4.93;;;13.40;96.40;;;;;;5074524;28;20590;-56
2024/03/20 01:08:18;;;;;;;7.97;5.37;;;13.40;96.50;;;;;;5074706;28;20834;-55
2024/03/20 01:10:45;;;;;;;10.93;5.90;;;13.30;96.50;;;;;;5074298;28;20786;-55
2024/03/20 01:13:13;;;;;;;8.20;5.70;;;13.30;96.60;;;;;;5074741;28;20441;-55
2024/03/20 01:15:40;;;;;;;9.67;5.13;;;13.20;96.50;;;;;;5074458;28;20942;-56
2024/03/20 01:18:07;;;;;;;9.00;5.43;;;13.20;96.60;;;;;;5074550;28;20447;-55
2024/03/20 01:20:33;;;;;;;12.03;6.10;;;13.20;96.70;;;;;;5074641;28;20459;-55
2024/03/20 01:23:00;;;;;;;8.47;4.77;;;13.20;96.70;;;;;;5074183;28;20808;-56
2024/03/20 01:25:27;;;;;;;9.53;4.93;;;13.20;96.80;;;;;;5074397;28;20567;-56
2024/03/20 01:27:54;;;;;;;5.77;4.90;;;13.20;96.90;;;;;;5074329;28;20441;-56
2024/03/20 01:30:23;;;;;;;11.07;5.40;;;13.20;97.10;;;;;;5073995;28;20444;-56
2024/03/20 01:32:49;;;;;;;12.73;5.80;;;13.20;97.30;;;;;;5074369;28;20443;-55
2024/03/20 01:35:16;;;;;;;13.17;5.13;;;13.10;97.10;;;;;;5074489;28;20437;-56
2024/03/20 01:37:43;;;;;;;7.90;4.57;;;13.10;97.20;;;;;;5074684;28;20449;-55
2024/03/20 01:40:11;;;;;;;7.43;5.60;;;13.10;97.20;;;;;;5074751;28;20465;-55
2024/03/20 01:42:38;;;;;;;6.27;5.17;;;13.10;97.30;;;;;;5074397;28;20817;-56
2024/03/20 01:45:13;;;;;;;8.07;5.37;;;13.10;97.30;;;;;;5073983;28;20443;-55
2024/03/20 01:47:42;;;;;;;10.93;4.87;;;13.10;97.30;;;;;;5074230;28;20446;-56
2024/03/20 01:50:10;;;;;;;9.57;4.73;;;13.00;97.20;;;;;;5073694;28;20482;-55
2024/03/20 01:52:48;;;;;;;6.53;4.80;;;13.00;97.20;;;;;;5073631;28;20793;-55
2024/03/20 01:55:15;;;;;;;7.67;5.30;;;13.00;97.20;;;;;;5074011;28;20416;-56
2024/03/20 01:57:42;;;;;;;6.73;4.13;;;13.00;97.20;;;;;;5073660;28;20547;-56
2024/03/20 02:00:12;;;;;;;8.20;4.83;;;12.90;97.10;;;;;;5073836;28;20471;-56
2024/03/20 02:02:42;;;;;;;5.50;5.07;;;12.90;97.20;;;;;;5073684;28;20433;-55
2024/03/20 02:05:09;;;;;;;6.83;4.20;;;12.90;97.20;;;;;;5073619;28;20440;-56
2024/03/20 02:07:35;;;;;;;9.60;6.80;;;12.90;97.30;;;;;;5073768;28;20532;-56
2024/03/20 02:10:02;;;;;;;6.60;4.17;;;12.80;97.20;;;;;;5073637;28;20452;-56
2024/03/20 02:12:29;;;;;;;9.60;5.00;;;12.80;97.40;;;;;;5073488;28;20824;-56
2024/03/20 02:14:57;;;;;;;6.97;4.43;;;12.80;97.30;;;;;;5074370;28;20464;-55
2024/03/20 02:17:24;;;;;;;9.97;4.90;;;12.70;97.30;;;;;;5073315;28;20891;-55
2024/03/20 02:19:52;;;;;;;7.00;5.53;;;12.70;97.40;;;;;;5073223;28;21002;-55
2024/03/20 02:22:20;;;;;;;9.83;5.70;;;12.70;97.50;;;;;;5074081;28;20452;-55
2024/03/20 02:24:47;;;;;;;5.50;4.80;;;12.70;97.50;;;;;;5073593;28;20452;-55
2024/03/20 02:27:14;;;;;;;8.57;4.77;;;12.60;97.50;;;;;;5073097;28;20476;-55
2024/03/20 02:29:40;;;;;;;6.17;4.57;;;12.60;97.60;;;;;;5073058;28;20996;-55
2024/03/20 02:32:07;;;;;;;8.27;4.50;;;12.60;97.60;;;;;;5073413;28;20452;-55
2024/03/20 02:34:34;;;;;;;7.07;5.37;;;12.60;97.60;;;;;;5073348;28;20206;-56
2024/03/20 02:37:01;;;;;;;5.83;4.43;;;12.60;97.60;;;;;;5073092;28;20441;-56
2024/03/20 02:39:30;;;;;;;5.80;5.20;;;12.60;97.60;;;;;;5073374;28;20547;-56
2024/03/20 02:41:56;;;;;;;6.13;4.70;;;12.50;97.60;;;;;;5073220;28;20437;-56
2024/03/20 02:44:23;;;;;;;5.90;5.07;;;12.50;97.60;;;;;;5073294;28;20448;-56
2024/03/20 02:46:50;;;;;;;7.00;4.73;;;12.50;97.70;;;;;;5073260;28;20586;-56
2024/03/20 02:49:17;;;;;;;7.67;5.53;;;12.50;97.80;;;;;;5073236;28;20464;-56
2024/03/20 02:51:44;;;;;;;5.67;4.67;;;12.50;97.90;;;;;;5073233;28;20452;-56
2024/03/20 02:54:11;;;;;;;6.77;4.80;;;12.50;98.00;;;;;;5072944;28;20939;-56
2024/03/20 02:56:39;;;;;;;6.10;5.40;;;12.50;98.20;;;;;;5073015;28;20458;-56
2024/03/20 02:59:05;;;;;;;7.13;4.80;;;12.50;98.20;;;;;;5073217;28;20464;-56
2024/03/20 03:01:32;;;;;;;8.83;5.90;;;12.40;98.30;;;;;;5073670;28;20532;-56
2024/03/20 03:03:58;;;;;;;5.40;4.40;;;12.50;98.40;;;;;;5073648;28;20445;-56
2024/03/20 03:06:25;;;;;;;6.17;4.70;;;12.50;98.60;;;;;;5077139;28;20483;-56
2024/03/20 03:08:52;;;;;;;5.80;4.93;;;12.50;98.70;;;;;;5077126;28;20228;-56
2024/03/20 03:11:19;;;;;;;7.97;4.70;;;12.50;98.80;;;;;;5077067;28;20531;-56
2024/03/20 03:13:47;;;;;;;4.80;4.40;;;12.50;98.90;;;;;;5077037;28;20445;-56
2024/03/20 03:16:14;;;;;;;5.73;4.67;;;12.50;99.00;;;;;;5076625;28;20527;-56
2024/03/20 03:18:41;;;;;;;8.43;4.80;;;12.50;99.10;;;;;;5076864;28;20471;-56
2024/03/20 03:21:09;;;;;;;7.43;5.10;;;12.60;99.10;;;;;;5076715;28;20441;-56
2024/03/20 03:23:36;;;;;;;5.43;4.50;;;12.50;99.10;;;;;;5076939;28;20448;-56
2024/03/20 03:26:03;;;;;;;9.87;5.37;;;12.50;99.10;;;;;;5076759;28;20491;-56
2024/03/20 03:28:30;;;;;;;8.20;5.63;;;12.50;99.20;;;;;;5076674;28;20464;-56
2024/03/20 03:30:58;;;;;;;5.07;4.50;;;12.50;99.30;;;;;;5076688;28;20816;-56
2024/03/20 03:33:25;;;;;;;6.53;4.67;;;12.50;99.40;;;;;;5076647;28;20441;-56
2024/03/20 03:35:52;;;;;;;6.77;5.37;;;12.50;99.50;;;;;;5076563;28;20440;-56
2024/03/20 03:38:19;;;;;;;9.73;5.23;;;12.50;99.50;;;;;;5076538;28;20471;-56
2024/03/20 03:40:45;;;;;;;10.13;4.43;;;12.40;99.40;;;;;;5076524;28;20446;-56
2024/03/20 03:43:12;;;;;;;6.00;5.40;;;12.40;99.30;;;;;;5076487;28;20551;-56
2024/03/20 03:45:39;;;;;;;6.63;5.23;;;12.30;99.30;;;;;;5076388;28;20440;-56
2024/03/20 03:48:08;;;;;;;6.70;5.03;;;12.30;99.40;;;;;;5076010;28;20465;-56
2024/03/20 03:50:35;;;;;;;6.47;4.50;;;12.30;99.50;;;;;;5076293;28;20445;-56
2024/03/20 03:53:02;;;;;;;6.10;5.50;;;12.30;99.60;;;;;;5076091;28;20455;-56
2024/03/20 03:55:29;;;;;;;7.80;4.60;;;12.30;99.70;;;;;;5076192;28;20523;-56
2024/03/20 03:57:56;;;;;;;6.27;5.10;;;12.30;99.70;;;;;;5074696;28;20502;-56
2024/03/20 04:00:23;;;;;;;5.90;4.70;;;12.30;99.80;;;;;;5075013;28;20450;-56
2024/03/20 04:02:50;;;;;;;7.63;5.33;;;12.30;99.90;;;;;;5075086;28;20452;-56
2024/03/20 04:05:19;;;;;;;7.47;4.50;;;12.30;99.80;;;;;;5075049;28;20475;-56
2024/03/20 04:07:45;;;;;;;5.70;5.03;;;12.30;99.70;;;;;;5074425;28;20486;-56
2024/03/20 04:10:12;;;;;;;4.77;4.37;;;12.30;99.70;;;;;;5074793;28;20548;-56
2024/03/20 04:12:39;;;;;;;5.50;4.50;;;12.30;99.60;;;;;;5074557;28;20441;-56
2024/03/20 04:15:07;;;;;;;10.70;5.80;;;12.30;99.70;;;;;;5074436;28;20447;-56
2024/03/20 04:17:34;;;;;;;4.90;4.40;;;12.30;99.70;;;;;;5074802;28;20456;-56
2024/03/20 04:20:01;;;;;;;12.60;5.07;;;12.30;99.90;;;;;;5074666;28;20851;-56
2024/03/20 04:22:29;;;;;;;7.17;6.00;;;12.30;99.90;;;;;;5074824;28;20441;-56
2024/03/20 04:24:56;;;;;;;7.00;5.20;;;12.30;99.90;;;;;;5074657;28;20451;-56
2024/03/20 04:27:22;;;;;;;6.90;5.23;;;12.30;99.90;;;;;;5074390;28;20516;-56
2024/03/20 04:29:49;;;;;;;6.63;5.07;;;12.30;99.90;;;;;;5074133;28;20464;-56
2024/03/20 04:32:16;;;;;;;6.90;5.60;;;12.20;99.90;;;;;;5074250;28;20957;-56
2024/03/20 04:34:43;;;;;;;6.57;5.87;;;12.20;99.90;;;;;;5074107;28;20817;-56
2024/03/20 04:37:10;;;;;;;6.37;4.80;;;12.20;99.90;;;;;;5074467;28;20441;-57
2024/03/20 04:39:38;;;;;;;8.67;5.30;;;12.20;99.90;;;;;;5074397;28;20464;-57
2024/03/20 04:42:05;;;;;;;10.00;5.53;;;12.20;99.90;;;;;;5074433;28;20531;-56
2024/03/20 04:44:32;;;;;;;6.70;4.40;;;12.20;99.90;;;;;;5074036;28;20440;-56
2024/03/20 04:46:59;;;;;;;5.83;4.93;;;12.10;99.90;;;;;;5074393;28;20854;-56
2024/03/20 04:49:26;;;;;;;7.20;5.00;;;12.10;99.90;;;;;;5073968;28;20986;-56
2024/03/20 04:51:52;;;;;;;10.37;5.60;;;12.10;99.90;;;;;;5074424;28;20444;-56
2024/03/20 04:54:19;;;;;;;7.53;6.30;;;12.10;99.90;;;;;;5074350;28;20447;-56
2024/03/20 04:56:47;;;;;;;6.53;5.10;;;12.10;99.90;;;;;;5023257;28;1457460;-56
2024/03/20 04:59:14;;;;;;;8.33;5.07;;;12.10;99.90;;;;;;5074947;28;20226;-56
2024/03/20 05:01:41;;;;;;;6.73;6.00;;;12.10;99.90;;;;;;5075304;28;20449;-56
2024/03/20 05:04:07;;;;;;;6.53;5.93;;;12.10;99.90;;;;;;5075398;28;20441;-56
2024/03/20 05:06:34;;;;;;;7.13;5.90;;;12.00;99.90;;;;;;5075212;28;20590;-56
2024/03/20 05:09:01;;;;;;;8.33;6.23;;;12.00;99.90;;;;;;5075536;28;20457;-56
2024/03/20 05:11:28;;;;;;;9.60;5.90;;;12.00;99.90;;;;;;5075585;28;20518;-56
2024/03/20 05:13:56;;;;;;;6.33;5.73;;;12.00;99.90;;;;;;5075423;28;20447;-56
2024/03/20 05:16:25;;;;;;;8.87;6.67;;;12.00;99.90;;;;;;5075513;28;20448;-56
2024/03/20 05:18:52;;;;;;;7.93;6.80;;;11.90;99.90;;;;;;5075011;28;20472;-56
2024/03/20 05:21:19;;;;;;;7.40;6.60;;;11.90;99.90;;;;;;5075326;28;20437;-56
2024/03/20 05:23:45;;;;;;;8.60;7.07;;;11.90;99.90;;;;;;5074658;28;20437;-57
2024/03/20 05:26:12;;;;;;;12.03;6.90;;;11.90;99.90;;;;;;5073970;28;20528;-56
2024/03/20 05:28:38;;;;;;;10.50;6.63;;;11.90;99.90;;;;;;5074289;28;20225;-56
2024/03/20 05:31:06;;;;;;;8.83;6.30;;;11.90;99.90;;;;;;5074741;28;20803;-57
2024/03/20 05:33:32;;;;;;;7.97;6.90;;;11.90;99.90;;;;;;5074757;28;20198;-56
2024/03/20 05:35:59;;;;;;;8.97;8.07;;;11.80;99.90;;;;;;5074689;28;20514;-56
2024/03/20 05:38:25;;;;;;;12.53;9.53;;;11.80;99.90;;;;;;5074188;28;20309;-56
2024/03/20 05:40:52;;;;;;;9.90;6.73;;;11.90;99.90;;;;;;5074045;28;20451;-56
2024/03/20 05:43:17;;;;;;;8.00;6.67;;;11.80;99.90;;;;;;5074219;28;20200;-56
2024/03/20 05:45:44;;;;;;;11.57;6.77;;;11.80;99.90;;;;;;5074197;28;20532;-56
2024/03/20 05:48:11;;;;;;;16.90;7.50;;;11.80;99.90;;;;;;5073827;28;20226;-56
2024/03/20 05:50:38;;;;;;;8.63;7.00;;;11.80;99.90;;;;;;5074070;28;20535;-56
2024/03/20 05:53:04;;;;;;;10.67;6.83;;;11.70;99.90;;;;;;5073841;28;20441;-56
2024/03/20 05:55:31;;;;;;;7.93;7.13;;;11.70;99.90;;;;;;5074070;28;20451;-56
2024/03/20 05:57:57;;;;;;;12.33;7.50;;;11.80;99.90;;;;;;5073609;28;20206;-56
2024/03/20 06:00:25;;;;;;;8.13;6.03;;;11.80;99.90;;;;;;5073648;28;20965;-56
2024/03/20 06:02:51;;;;;;;11.60;6.80;;;11.80;99.90;;;;;;5073940;28;20205;-56
2024/03/20 06:05:19;;;;;;;10.50;6.60;;;11.80;99.90;;;;;;5073751;28;20540;-57
2024/03/20 06:07:45;;;;;;;18.60;6.63;;;11.70;99.90;;;;;;5073615;28;20517;-56
2024/03/20 06:10:13;;;;;;;12.73;5.90;;;11.80;99.90;;;;;;5073293;28;21022;-56
2024/03/20 06:12:39;;;;;;;9.37;6.10;;;11.70;99.90;;;;;;5073471;28;20853;-56
2024/03/20 06:15:07;;;;;;;9.67;6.10;;;11.80;99.90;;;;;;5073663;28;20448;-56
2024/03/20 06:17:33;;;;;;;10.90;6.27;;;11.80;99.90;;;;;;5073382;28;21012;-56
2024/03/20 06:20:00;;;;;;;11.00;8.00;;;11.80;99.90;;;;;;5073235;28;20471;-56
2024/03/20 06:22:28;;;;;;;10.40;6.83;;;11.90;99.90;;;;;;5073653;28;20444;-56
2024/03/20 06:24:54;;;;;;;8.50;7.30;;;11.90;99.90;;;;;;5073635;28;20441;-56
2024/03/20 06:27:20;;;;;;;9.10;7.20;;;11.90;99.90;;;;;;5073135;28;20476;-56
2024/03/20 06:29:50;;;;;;;8.47;6.90;;;12.00;99.90;;;;;;5073297;28;20479;-56
2024/03/20 06:32:17;;;;;;;12.20;7.67;;;12.00;99.90;;;;;;5073466;28;20830;-56
2024/03/20 06:34:43;;;;;;;9.10;7.23;;;12.00;99.90;;;;;;5073528;28;20813;-56
2024/03/20 06:37:10;;;;;;;11.23;7.30;;;12.00;99.90;;;;;;5073429;28;20436;-57
2024/03/20 06:39:38;;;;;;;11.00;7.00;;;12.10;99.90;;;;;;5072943;28;20471;-56
2024/03/20 06:42:10;;;;;;;10.33;7.10;;;12.10;99.90;;;;;;5073320;28;20445;-56
2024/03/20 06:44:37;;;;;;;9.80;7.27;;;12.20;99.90;;;;;;5073336;28;20498;-56
2024/03/20 06:47:03;;;;;;;9.30;6.97;;;12.30;99.90;;;;;;5072830;28;20484;-56
2024/03/20 06:49:33;;;;;;;11.43;6.53;;;12.30;99.90;;;;;;5072798;28;20468;-56
2024/03/20 06:51:59;;;;;;;12.93;7.77;;;12.40;99.90;;;;;;5073236;28;20451;-56
2024/03/20 06:54:26;;;;;;;9.60;6.97;;;12.50;99.90;;;;;;5073176;28;20445;-56
2024/03/20 06:56:58;;;;;;;6.60;5.93;;;12.50;99.90;;;;;;5072857;28;20202;-56
2024/03/20 06:59:25;;;;;;;9.73;5.90;;;12.60;99.90;;;;;;5072845;28;20460;-56
2024/03/20 07:01:51;;;;;;;7.20;5.93;;;12.60;99.90;;;;;;5073139;28;20444;-56
2024/03/20 07:04:18;;;;;;;7.50;5.90;;;12.70;99.90;;;;;;5073128;28;20447;-56
2024/03/20 07:06:44;;;;;;;12.10;5.93;;;12.80;99.90;;;;;;5073066;28;20222;-56
2024/03/20 07:09:10;;;;;;;10.33;5.73;;;12.80;99.90;;;;;;5072921;28;20476;-56
2024/03/20 07:11:37;;;;;;;15.27;8.10;;;12.90;99.90;;;;;;5072976;28;20202;-56
2024/03/20 07:14:05;;;;;;;8.27;6.60;;;13.00;99.90;;;;;;5072736;28;20813;-57
2024/03/20 07:16:31;;;;;;;11.80;6.77;;;13.00;99.90;;;;;;5072957;28;20467;-56
2024/03/20 07:18:58;;;;;;;13.90;6.50;;;13.10;99.90;;;;;;5072888;28;20986;-57
2024/03/20 07:21:25;;;;;;;6.90;5.40;;;13.20;99.90;;;;;;5072665;28;20206;-56
2024/03/20 07:23:51;;;;;;;9.40;6.90;;;13.20;99.90;;;;;;5072921;28;20475;-57
2024/03/20 07:26:17;;;;;;;9.50;6.53;;;13.30;99.90;;;;;;5072885;28;20440;-56
2024/03/20 07:28:44;;;;;;;10.77;5.93;;;13.40;99.90;;;;;;5072604;28;20831;-57
2024/03/20 07:31:11;;;;;;;9.10;5.83;;;13.40;99.90;;;;;;5072847;28;20202;-57
2024/03/20 07:33:38;;;;;;;8.53;6.40;;;13.50;99.90;;;;;;5072817;28;20456;-57
2024/03/20 07:36:04;;;;;;;7.47;5.70;;;13.60;99.90;;;;;;5072900;28;20449;-56
2024/03/20 07:38:31;;;;;;;11.77;6.47;;;13.70;99.90;;;;;;5072708;28;20453;-57
2024/03/20 07:40:57;;;;;;;6.57;5.20;;;13.70;99.90;;;;;;5072824;28;20444;-56
2024/03/20 07:43:24;;;;;;;8.03;5.77;;;13.80;99.90;;;;;;5072462;28;20450;-56
2024/03/20 07:45:50;;;;;;;6.33;5.13;;;13.90;99.90;;;;;;5072765;28;20202;-56
2024/03/20 07:48:18;;;;;;;7.20;6.17;;;14.00;99.90;;;;;;5072512;28;20491;-57
2024/03/20 07:50:44;;;;;;;5.67;4.30;;;14.10;99.80;;;;;;5074529;28;20207;-57
2024/03/20 07:53:11;;;;;;;8.27;4.80;;;14.20;99.30;;;;;;5076396;28;20450;-57
2024/03/20 07:55:38;;;;;;;9.20;4.60;;;14.30;99.10;;;;;;5076324;28;20441;-57
2024/03/20 07:58:05;;;;;;;8.60;5.03;;;14.40;98.70;;;;;;5075837;28;20456;-57
2024/03/20 08:00:31;;;;;;;11.33;4.87;;;14.40;97.80;;;;;;5076271;28;20441;-56
2024/03/20 08:02:58;;;;;;;5.90;4.00;;;14.50;97.80;;;;;;5076233;28;20525;-56
2024/03/20 08:05:26;;;;;;;14.53;5.40;;;14.50;97.60;;;;;;5075837;28;21001;-57
2024/03/20 08:07:53;;;;;;;11.00;4.80;;;14.60;97.30;;;;;;5075905;28;20486;-57
2024/03/20 08:10:19;;;;;;;10.70;4.80;;;14.60;97.20;;;;;;5075593;28;20455;-56
2024/03/20 08:12:46;;;;;;;7.67;4.20;;;14.70;96.90;;;;;;5075999;28;20992;-56
2024/03/20 08:15:12;;;;;;;5.67;3.93;;;14.70;96.80;;;;;;5076061;28;20471;-56
2024/03/20 08:17:39;;;;;;;7.47;4.27;;;14.80;96.70;;;;;;5075976;28;20939;-56
2024/03/20 08:20:12;;;;;;;4.60;3.90;;;14.90;96.70;;;;;;5076474;28;20249;-56
2024/03/20 08:22:40;;;;;;;5.87;3.70;;;15.00;96.70;;;;;;5076755;28;20429;-56
2024/03/20 08:25:07;;;;;;;6.33;4.00;;;15.20;96.60;;;;;;5076040;28;20441;-56
2024/03/20 08:27:34;;;;;;;5.07;4.27;;;15.30;96.30;;;;;;5075514;28;20848;-56
2024/03/20 08:30:00;;;;;;;7.33;4.20;;;15.40;95.80;;;;;;5075925;28;20472;-56
2024/03/20 08:32:27;;;;;;;5.47;3.40;;;15.50;95.50;;;;;;5075787;28;20502;-56
2024/03/20 08:34:52;;;;;;;4.70;3.33;;;15.70;95.40;;;;;;5075680;28;20595;-56
2024/03/20 08:37:19;;;;;;;6.30;4.30;;;15.70;95.10;;;;;;5075481;28;20532;-56
2024/03/20 08:39:46;;;;;;;5.67;3.47;;;15.80;94.80;;;;;;5075239;28;20222;-56
2024/03/20 08:42:13;;;;;;;5.00;3.33;;;15.90;94.70;;;;;;5075312;28;20539;-56
2024/03/20 08:44:40;;;;;;;7.03;3.87;;;16.00;94.50;;;;;;5075249;28;20447;-56
2024/03/20 08:47:07;;;;;;;8.83;3.83;;;16.10;94.30;;;;;;5075110;28;20473;-56
2024/03/20 08:49:37;;;;;;;7.27;4.30;;;16.20;94.40;;;;;;5075287;28;20465;-55
2024/03/20 08:52:06;;;;;;;7.93;4.63;;;16.30;94.50;;;;;;5075474;28;20444;-55
2024/03/20 08:54:33;;;;;;;10.53;3.83;;;16.50;94.50;;;;;;5074980;28;20452;-56
2024/03/20 08:57:03;;;;;;;10.20;4.90;;;16.70;94.40;;;;;;5074974;28;20543;-55
2024/03/20 08:59:30;;;;;;;7.90;4.23;;;16.80;94.20;;;;;;5075075;28;20504;-55
2024/03/20 09:01:57;;;;;;;6.50;4.83;;;17.00;94.20;;;;;;5074174;28;20445;-56
2024/03/20 09:04:23;;;;;;;3.73;3.43;;;17.10;94.00;;;;;;5075059;28;20452;-56
2024/03/20 09:06:50;;;;;;;8.83;4.17;;;17.30;93.80;;;;;;5075011;28;20444;-55
2024/03/20 09:09:16;;;;;;;5.87;4.50;;;17.50;93.30;;;;;;5074695;28;20467;-55
2024/03/20 09:11:42;;;;;;;7.53;4.40;;;17.60;92.80;;;;;;5074905;28;20515;-55
2024/03/20 09:14:10;;;;;;;7.63;4.53;;;17.80;92.40;;;;;;5074844;28;20198;-55
2024/03/20 09:16:36;;;;;;;7.13;3.87;;;18.00;92.30;;;;;;5074793;28;20452;-56
2024/03/20 09:19:02;;;;;;;8.77;4.00;;;18.10;92.20;;;;;;5074690;28;20484;-55
2024/03/20 09:21:32;;;;;;;5.67;4.10;;;18.30;91.90;;;;;;5074728;28;20440;-55
2024/03/20 09:23:58;;;;;;;5.13;3.70;;;18.40;91.50;;;;;;5074664;28;20213;-55
2024/03/20 09:26:25;;;;;;;6.87;3.80;;;18.60;91.30;;;;;;5074310;28;20441;-55
2024/03/20 09:28:51;;;;;;;6.07;3.60;;;18.80;90.80;;;;;;5074372;28;20242;-55
2024/03/20 09:31:19;;;;;;;7.80;4.20;;;18.90;90.50;;;;;;5074388;28;20467;-55
2024/03/20 09:33:46;;;;;;;5.00;3.50;;;19.10;90.00;;;;;;5074089;28;20966;-55
2024/03/20 09:36:13;;;;;;;7.10;3.40;;;19.20;88.90;;;;;;5074421;28;20522;-55
2024/03/20 09:38:39;;;;;;;5.40;3.87;;;19.40;88.50;;;;;;5074271;28;20457;-55
2024/03/20 09:41:14;;;;;;;5.90;3.27;;;19.50;87.90;;;;;;5073998;28;20555;-55
2024/03/20 09:43:40;;;;;;;4.93;2.73;;;19.70;85.50;;;;;;5074004;28;20269;-55
2024/03/20 09:46:09;;;;;;;5.73;3.17;;;19.90;83.70;;;;;;5073947;28;20544;-56
2024/03/20 09:48:37;;;;;;;8.70;3.40;;;20.00;81.60;;;;;;5073958;28;20237;-56
2024/03/20 09:51:04;;;;;;;9.60;2.73;;;20.20;78.50;;;;;;5074276;28;20452;-55
2024/03/20 09:53:34;;;;;;;5.20;3.03;;;20.30;77.00;;;;;;5073761;28;20958;-55
2024/03/20 09:56:09;;;;;;;3.30;2.10;;;20.40;74.90;;;;;;5073627;28;20465;-55
2024/03/20 09:58:36;;;;;;;4.40;3.00;;;20.60;75.40;;;;;;5073852;28;20554;-56
2024/03/20 10:01:05;;;;;;;4.77;3.30;;;20.90;75.00;;;;;;5073560;28;20961;-56
2024/03/20 10:03:32;;;;;;;3.23;2.33;;;21.10;72.50;;;;;;5073855;28;20593;-56
2024/03/20 10:06:00;;;;;;;4.70;3.00;;;21.20;72.00;;;;;;5073649;28;20893;-56
2024/03/20 10:08:26;;;;;;;4.80;2.30;;;21.60;72.80;;;;;;5073569;28;20484;-56
2024/03/20 10:10:54;;;;;;;6.60;2.50;;;21.90;72.50;;;;;;5073728;28;20449;-56
2024/03/20 10:13:21;;;;;;;6.13;2.93;;;22.20;70.40;;;;;;5073453;28;20206;-56
2024/03/20 10:15:48;;;;;;;5.47;2.63;;;22.50;67.50;;;;;;5073347;28;20816;-56
2024/03/20 10:18:15;;;;;;;12.10;3.33;;;22.80;63.70;;;;;;5073574;28;20445;-56
2024/03/20 10:20:42;;;;;;;6.87;2.83;;;23.10;61.60;;;;;;5073326;28;20864;-56
2024/03/20 10:23:15;;;;;;;4.80;2.33;;;23.40;60.20;;;;;;5073782;28;20542;-56
2024/03/20 10:25:42;;;;;;;8.00;2.90;;;23.70;59.30;;;;;;5073566;28;20433;-56
2024/03/20 10:28:13;;;;;;;6.37;2.30;;;24.10;58.40;;;;;;5073395;28;20571;-56
2024/03/20 10:30:41;;;;;;;5.83;2.57;;;24.40;56.70;;;;;;5073488;28;20435;-56
2024/03/20 10:33:07;;;;;;;14.00;3.23;;;24.70;55.60;;;;;;5073418;28;20446;-56
2024/03/20 10:35:36;;;;;;;7.27;2.40;;;25.10;55.30;;;;;;5073120;28;20432;-56
2024/03/20 10:38:02;;;;;;;6.63;3.23;;;25.40;53.60;;;;;;5073517;28;20811;-56
2024/03/20 10:40:31;;;;;;;4.37;2.27;;;25.70;51.20;;;;;;5073479;28;20441;-56
2024/03/20 10:42:57;;;;;;;4.70;2.50;;;26.00;50.10;;;;;;5073222;28;20455;-55
2024/03/20 10:45:24;;;;;;;6.57;2.10;;;26.40;49.20;;;;;;5073337;28;20449;-55
2024/03/20 10:47:50;;;;;;;4.23;2.20;;;26.80;48.30;;;;;;5073009;28;20222;-56
2024/03/20 10:50:18;;;;;;;5.80;2.50;;;27.20;47.80;;;;;;5073148;28;20471;-56
2024/03/20 10:52:45;;;;;;;6.30;2.20;;;27.50;45.40;;;;;;5073268;28;20202;-56
2024/03/20 10:55:15;;;;;;;2.83;2.00;;;27.60;42.70;;;;;;5073320;28;20451;-56
2024/03/20 10:57:43;;;;;;;7.13;2.23;;;27.40;43.40;;;;;;5072923;28;20451;-56
2024/03/20 11:00:17;;;;;;;4.30;2.20;;;27.40;43.20;;;;;;5073131;28;20464;-56
2024/03/20 11:02:44;;;;;;;3.43;2.17;;;27.50;41.90;;;;;;5073190;28;20433;-56
2024/03/20 11:05:39;;;;;;;6.07;2.23;;;27.40;42.00;;;;;;5073315;28;20478;-56
2024/03/20 11:08:07;;;;;;;3.67;2.30;;;27.30;41.10;;;;;;5072953;28;20476;-56
2024/03/20 11:10:35;;;;;;;3.80;1.80;;;27.20;42.40;;;;;;5072968;28;20466;-56
2024/03/20 11:13:03;;;;;;;6.83;1.77;;;27.30;43.00;;;;;;5072734;28;20441;-56
2024/03/20 11:15:31;;;;;;;6.40;1.73;;;27.50;42.50;;;;;;5073055;28;20444;-56
2024/03/20 11:17:59;;;;;;;5.00;1.70;;;27.80;41.10;;;;;;5073159;28;20441;-57
2024/03/20 11:20:45;;;;;;;2.47;1.70;;;28.20;40.90;;;;;;5072689;28;20938;-56
2024/03/20 11:23:22;;;;;;;4.10;1.93;;;28.70;40.20;;;;;;5072709;28;20844;-56
2024/03/20 11:25:49;;;;;;;3.90;1.97;;;29.20;39.70;;;;;;5075137;28;20432;-56
2024/03/20 11:28:17;;;;;;;5.80;2.00;;;29.70;38.20;;;;;;5076969;28;20478;-56
2024/03/20 11:30:44;;;;;;;3.33;1.57;;;30.40;38.10;;;;;;5077229;28;20456;-56
2024/03/20 11:33:10;;;;;;;4.60;1.67;;;31.00;37.70;;;;;;5076883;28;20444;-56
2024/03/20 11:35:38;;;;;;;3.30;2.03;;;31.40;35.70;;;;;;5076941;28;20494;-56
2024/03/20 11:38:05;;;;;;;5.37;2.50;;;31.70;34.60;;;;;;5076373;28;20436;-56
2024/03/20 11:40:33;;;;;;;6.13;2.20;;;32.00;32.90;;;;;;5076492;28;20937;-56
2024/03/20 11:42:59;;;;;;;3.73;1.53;;;32.20;32.20;;;;;;5076208;28;20451;-56
2024/03/20 11:45:30;;;;;;;6.53;1.73;;;32.40;32.70;;;;;;5076500;28;20497;-56
2024/03/20 11:47:56;;;;;;;3.17;1.80;;;32.50;31.50;;;;;;5076564;28;20210;-58
2024/03/20 11:50:23;;;;;;;4.03;1.80;;;32.70;31.10;;;;;;5076448;28;20538;-56
2024/03/20 11:52:51;;;;;;;3.97;1.57;;;32.60;30.20;;;;;;5076433;28;20205;-56
2024/03/20 11:55:19;;;;;;;4.57;2.07;;;32.50;30.20;;;;;;5076291;28;20451;-56
2024/03/20 11:57:44;;;;;;;2.77;1.40;;;32.30;30.00;;;;;;5076040;28;20459;-56
2024/03/20 12:00:13;;;;;;;3.40;1.80;;;32.20;30.80;;;;;;5076076;28;20460;-56
2024/03/20 12:02:41;;;;;;;2.73;1.80;;;32.20;30.00;;;;;;5076220;28;20202;-56
2024/03/20 12:05:10;;;;;;;4.10;2.00;;;32.00;29.90;;;;;;5076094;28;20452;-56
2024/03/20 12:07:36;;;;;;;4.90;1.87;;;31.90;30.60;;;;;;5076079;28;20450;-56
2024/03/20 12:10:04;;;;;;;6.03;2.27;;;31.60;31.10;;;;;;5075865;28;20597;-56
2024/03/20 12:12:30;;;;;;;3.20;1.70;;;31.60;31.50;;;;;;5075656;28;20993;-56
2024/03/20 12:14:59;;;;;;;6.00;1.80;;;31.60;31.70;;;;;;5075961;28;20531;-56
2024/03/20 12:17:26;;;;;;;2.23;1.60;;;31.80;31.90;;;;;;5075798;28;20444;-56
2024/03/20 12:19:55;;;;;;;3.70;1.60;;;31.60;29.80;;;;;;5075759;28;20471;-56
2024/03/20 12:22:21;;;;;;;3.60;1.30;;;31.50;31.70;;;;;;5075519;28;20964;-56
2024/03/20 12:24:48;;;;;;;4.00;1.60;;;31.60;32.70;;;;;;5075702;28;20444;-56
2024/03/20 12:27:15;;;;;;;3.73;1.77;;;32.00;31.60;;;;;;5075417;28;20926;-56
2024/03/20 12:29:43;;;;;;;5.43;1.80;;;32.40;31.20;;;;;;5075451;28;20484;-56
2024/03/20 12:32:10;;;;;;;4.10;1.90;;;32.70;29.60;;;;;;5075291;28;20514;-56
2024/03/20 12:34:39;;;;;;;3.80;1.77;;;32.90;29.40;;;;;;5075650;28;20205;-56
2024/03/20 12:37:08;;;;;;;3.67;1.90;;;33.00;28.80;;;;;;5075272;28;20440;-57
2024/03/20 12:39:35;;;;;;;1.80;1.33;;;33.00;28.10;;;;;;5075462;28;20456;-56
2024/03/20 12:42:01;;;;;;;3.37;1.67;;;33.00;29.00;;;;;;5075631;28;20442;-56
2024/03/20 12:44:29;;;;;;;1.90;1.57;;;33.10;29.60;;;;;;5074988;28;20444;-56
2024/03/20 12:46:55;;;;;;;3.77;1.70;;;33.40;29.80;;;;;;5074990;28;20452;-56